Time;durP1;ratioP1;P1;durP2;ratioP2;P2;SDS_P1;SDS_P2;PMS_P1;PMS_P2;Temp;Humidity;BMP_temperature;BMP_pressure;BME280_temperature;BME280_humidity;BME280_pressure;Samples;Min_cycle;Max_cycle;Signal;HPM_P1;HPM_P2
2021/09/16 00:00:07;;;;;;;1.47;1.03;;;;;;;20.68;73.34;98607.38;5129220;27;39034;-83
2021/09/16 00:02:40;;;;;;;1.20;1.10;;;;;;;20.69;73.47;98616.31;5130874;27;42018;-81
2021/09/16 00:05:13;;;;;;;1.70;1.60;;;;;;;20.69;73.38;98602.84;5130062;27;43904;-80
2021/09/16 00:07:41;;;;;;;1.43;1.33;;;;;;;20.72;73.16;98607.91;5128755;27;42466;-82
2021/09/16 00:10:09;;;;;;;1.63;1.37;;;;;;;20.68;73.07;98601.16;5129132;27;41216;-79
2021/09/16 00:12:37;;;;;;;1.60;1.43;;;;;;;20.72;73.29;98607.91;5131240;27;41536;-81
2021/09/16 00:15:06;;;;;;;0.90;0.90;;;;;;;20.73;73.10;98614.97;5129908;27;41854;-82
2021/09/16 00:17:35;;;;;;;1.87;1.50;;;;;;;20.74;72.82;98611.28;5130751;27;42089;-83
2021/09/16 00:20:06;;;;;;;1.20;1.10;;;;;;;20.71;72.86;98612.44;5129690;27;40127;-81
2021/09/16 00:22:33;;;;;;;2.70;1.07;;;;;;;20.62;72.96;98604.53;5129426;27;42751;-81
2021/09/16 00:25:01;;;;;;;1.40;1.30;;;;;;;20.66;72.93;98608.56;5129891;27;42906;-83
2021/09/16 00:27:29;;;;;;;1.93;1.37;;;;;;;20.69;73.16;98624.38;5145926;27;42151;-80
2021/09/16 00:30:01;;;;;;;1.07;1.07;;;;;;;20.66;72.67;98614.78;5150891;27;41139;-79
2021/09/16 00:32:28;;;;;;;1.53;1.37;;;;;;;20.75;72.75;98612.97;5134291;27;41810;-78
2021/09/16 00:34:56;;;;;;;3.67;1.13;;;;;;;20.74;72.37;98611.28;5132622;27;42231;-80
2021/09/16 00:37:25;;;;;;;1.87;1.30;;;;;;;20.77;72.81;98621.72;5148777;27;43941;-80
2021/09/16 00:39:53;;;;;;;1.50;1.20;;;;;;;20.72;72.79;98613.28;5132117;27;39278;-79
2021/09/16 00:42:20;;;;;;;1.83;1.23;;;;;;;20.76;72.89;98622.72;5148887;27;40986;-78
2021/09/16 00:44:48;;;;;;;1.57;1.23;;;;;;;20.75;72.67;98618.34;5141900;27;43337;-80
2021/09/16 00:47:17;;;;;;;1.23;1.13;;;;;;;20.75;72.68;98627.28;5142028;27;42321;-83
2021/09/16 00:49:45;;;;;;;1.47;1.37;;;;;;;20.77;73.03;98621.72;5119806;27;40231;-83
2021/09/16 00:52:13;;;;;;;1.13;1.03;;;;;;;20.82;72.68;98632.81;5132234;27;42813;-80
2021/09/16 00:54:46;;;;;;;1.60;1.30;;;;;;;20.74;72.85;98617.50;5120569;27;42150;-80
2021/09/16 00:57:16;;;;;;;2.03;1.40;;;;;;;20.83;73.02;98634.50;5120569;27;41412;-79
2021/09/16 00:59:46;;;;;;;1.37;1.23;;;;;;;20.85;72.78;98634.34;5132813;27;42021;-81
2021/09/16 01:02:14;;;;;;;2.57;1.57;;;;;;;20.86;72.79;98636.88;5126392;27;41968;-81
2021/09/16 01:04:41;;;;;;;2.40;1.73;;;;;;;20.86;72.84;98631.50;5134057;27;42892;-83
2021/09/16 01:07:12;;;;;;;1.43;1.33;;;;;;;20.88;72.97;98634.00;5116037;27;41575;-80
2021/09/16 01:09:43;;;;;;;1.57;1.47;;;;;;;20.89;72.94;98631.16;5143093;27;40845;-83
2021/09/16 01:12:11;;;;;;;2.03;1.40;;;;;;;20.91;72.63;98634.50;5129244;27;40583;-82
2021/09/16 01:14:39;;;;;;;2.10;1.27;;;;;;;20.83;72.37;98615.66;5119199;27;42477;-81
2021/09/16 01:17:06;;;;;;;1.53;1.40;;;;;;;20.88;72.74;98624.09;5144093;27;42388;-80
2021/09/16 01:19:34;;;;;;;1.20;1.10;;;;;;;20.96;72.70;98632.16;5129660;27;40093;-81
2021/09/16 01:22:01;;;;;;;1.80;1.63;;;;;;;20.93;72.84;98627.09;5127278;27;41863;-82
2021/09/16 01:24:30;;;;;;;2.30;1.20;;;;;;;20.91;72.66;98621.03;5132813;27;43786;-80
2021/09/16 01:26:58;;;;;;;1.13;1.03;;;;;;;20.97;72.55;98623.09;5137130;27;41472;-79
2021/09/16 01:29:25;;;;;;;2.80;1.50;;;;;;;21.00;72.37;98617.38;5112614;27;39218;-82
2021/09/16 01:31:53;;;;;;;1.50;1.40;;;;;;;20.99;72.39;98629.16;5108460;27;40816;-81
2021/09/16 01:34:20;;;;;;;1.30;1.20;;;;;;;20.96;72.10;98607.94;5133523;27;42097;-81
2021/09/16 01:36:49;;;;;;;1.57;1.40;;;;;;;21.01;72.35;98621.75;5139134;27;43205;-80
2021/09/16 01:39:18;;;;;;;1.60;1.50;;;;;;;21.06;72.21;98618.53;5124617;27;38960;-79
2021/09/16 01:41:47;;;;;;;1.53;1.33;;;;;;;21.05;72.15;98620.38;5149070;27;42527;-80
2021/09/16 01:44:15;;;;;;;2.00;1.57;;;;;;;21.01;72.37;98624.44;5121069;27;41722;-80
2021/09/16 01:46:43;;;;;;;1.60;1.50;;;;;;;20.96;72.41;98629.47;5143341;27;42338;-80
2021/09/16 01:49:11;;;;;;;1.97;1.43;;;;;;;20.95;72.35;98633.16;5141633;27;41036;-81
2021/09/16 01:51:39;;;;;;;1.50;1.40;;;;;;;20.97;72.50;98633.00;5138142;27;42071;-80
2021/09/16 01:54:07;;;;;;;1.47;1.37;;;;;;;20.97;72.20;98631.16;5130596;27;41834;-82
2021/09/16 01:56:35;;;;;;;1.23;1.13;;;;;;;20.99;72.66;98633.69;5130707;27;42199;-82
2021/09/16 01:59:04;;;;;;;1.40;1.30;;;;;;;20.96;72.90;98637.56;5122304;27;38935;-82
2021/09/16 02:01:31;;;;;;;2.67;1.70;;;;;;;20.94;72.85;98627.94;5119506;27;40734;-80
2021/09/16 02:03:59;;;;;;;2.37;1.47;;;;;;;20.99;72.77;98639.91;5141320;27;43219;-81
2021/09/16 02:06:26;;;;;;;1.40;1.20;;;;;;;21.00;72.71;98638.06;5137409;27;42277;-82
2021/09/16 02:08:54;;;;;;;3.07;1.30;;;;;;;21.04;72.92;98637.53;5139845;27;38958;-80
2021/09/16 02:11:21;;;;;;;1.80;1.70;;;;;;;21.01;72.42;98632.53;5135784;27;41944;-80
2021/09/16 02:13:49;;;;;;;1.77;1.50;;;;;;;21.07;72.58;98634.53;5129053;27;43833;-84
2021/09/16 02:16:18;;;;;;;1.30;1.20;;;;;;;21.08;72.58;98633.53;5136560;27;42067;-83
2021/09/16 02:18:45;;;;;;;1.63;1.50;;;;;;;21.10;72.21;98634.19;5139968;27;40224;-83
2021/09/16 02:21:13;;;;;;;1.60;1.50;;;;;;;21.12;72.41;98637.56;5139836;27;40697;-82
2021/09/16 02:23:40;;;;;;;1.90;1.37;;;;;;;21.11;72.39;98630.50;5136663;27;43027;-82
2021/09/16 02:26:08;;;;;;;2.43;2.10;;;;;;;21.12;72.31;98629.50;5123480;27;42119;-81
2021/09/16 02:28:36;;;;;;;1.57;1.47;;;;;;;21.13;72.68;98630.34;5119421;27;39033;-81
2021/09/16 02:31:05;;;;;;;1.73;1.50;;;;;;;20.95;72.60;98603.56;5139888;27;41772;-80
2021/09/16 02:33:33;;;;;;;1.57;1.47;;;;;;;21.10;73.09;98625.28;5132262;27;43064;-79
2021/09/16 02:36:02;;;;;;;1.50;1.40;;;;;;;21.09;72.83;98620.91;5140608;27;41814;-79
2021/09/16 02:38:30;;;;;;;1.63;1.53;;;;;;;20.97;72.91;98598.84;5135853;27;39830;-81
2021/09/16 02:40:58;;;;;;;1.60;1.50;;;;;;;21.07;72.63;98615.69;5138318;27;41934;-84
2021/09/16 02:43:25;;;;;;;2.07;1.60;;;;;;;21.02;72.75;98609.94;5139053;27;42798;-83
2021/09/16 02:45:53;;;;;;;1.80;1.67;;;;;;;21.13;72.68;98624.94;5136317;27;42548;-80
2021/09/16 02:48:20;;;;;;;1.90;1.80;;;;;;;21.12;72.69;98623.25;5128082;27;39694;-81
2021/09/16 02:50:49;;;;;;;1.80;1.70;;;;;;;21.06;72.87;98608.59;5133673;27;41831;-81
2021/09/16 02:53:17;;;;;;;1.73;1.63;;;;;;;21.12;72.73;98621.41;5120144;27;43312;-81
2021/09/16 02:55:45;;;;;;;2.10;1.43;;;;;;;21.13;72.76;98624.94;5142174;27;42623;-81
2021/09/16 02:58:13;;;;;;;1.57;1.43;;;;;;;21.11;72.75;98627.81;5150188;27;40240;-81
2021/09/16 03:00:41;;;;;;;3.23;1.53;;;;;;;21.10;72.83;98631.50;5124985;27;41319;-82
2021/09/16 03:03:09;;;;;;;1.30;1.20;;;;;;;21.03;73.27;98633.16;5119444;27;41877;-81
2021/09/16 03:05:36;;;;;;;2.10;1.57;;;;;;;20.92;73.56;98630.81;5133101;27;42615;-80
2021/09/16 03:08:06;;;;;;;1.90;1.60;;;;;;;20.80;74.06;98634.81;5130981;27;40177;-80
2021/09/16 03:10:33;;;;;;;1.60;1.50;;;;;;;20.69;74.62;98636.00;5129105;27;42018;-78
2021/09/16 03:13:01;;;;;;;2.43;1.50;;;;;;;20.66;75.37;98633.63;5128192;27;44014;-78
2021/09/16 03:15:28;;;;;;;1.97;1.87;;;;;;;20.61;75.51;98629.75;5129964;27;42232;-78
2021/09/16 03:17:56;;;;;;;2.50;1.37;;;;;;;20.59;75.02;98624.53;5129923;27;40143;-77
2021/09/16 03:20:24;;;;;;;1.90;1.70;;;;;;;20.59;75.29;98629.91;5129864;27;41828;-77
2021/09/16 03:22:51;;;;;;;1.70;1.60;;;;;;;20.51;75.33;98626.38;5128471;27;41677;-79
2021/09/16 03:25:20;;;;;;;1.63;1.53;;;;;;;20.57;75.17;98634.63;5129080;27;42241;-79
2021/09/16 03:27:47;;;;;;;1.60;1.50;;;;;;;20.55;75.44;98627.72;5130612;27;40981;-79
2021/09/16 03:30:15;;;;;;;2.03;1.70;;;;;;;20.54;75.73;98624.19;5129788;27;40643;-78
2021/09/16 03:32:43;;;;;;;2.00;1.77;;;;;;;20.54;75.29;98626.03;5113361;27;41785;-80
2021/09/16 03:35:11;;;;;;;3.87;2.43;;;;;;;20.51;75.40;98621.84;5128161;27;41540;-80
2021/09/16 03:37:39;;;;;;;2.70;2.50;;;;;;;20.48;75.60;98624.00;5112806;27;39353;-79
2021/09/16 03:40:07;;;;;;;2.17;1.70;;;;;;;20.43;75.79;98614.56;5112508;27;41063;-80
2021/09/16 03:42:37;;;;;;;1.63;1.53;;;;;;;20.44;75.75;98621.63;5130499;27;42889;-80
2021/09/16 03:45:05;;;;;;;2.47;2.10;;;;;;;20.46;75.36;98634.09;5130676;27;42743;-79
2021/09/16 03:47:32;;;;;;;1.47;1.37;;;;;;;20.43;75.41;98625.31;5130827;27;38984;-79
2021/09/16 03:50:00;;;;;;;1.47;1.33;;;;;;;20.45;75.63;98633.25;5112171;27;40574;-79
2021/09/16 03:52:27;;;;;;;2.17;1.97;;;;;;;20.46;75.21;98636.78;5113125;27;41911;-81
2021/09/16 03:54:55;;;;;;;2.40;1.90;;;;;;;20.45;75.42;98633.25;5112419;27;42572;-80
2021/09/16 03:57:23;;;;;;;3.10;2.20;;;;;;;20.35;75.56;98622.63;5130352;27;39895;-81
2021/09/16 03:59:52;;;;;;;3.20;2.50;;;;;;;20.42;75.66;98634.41;5129465;27;41868;-80
2021/09/16 04:02:19;;;;;;;2.37;1.90;;;;;;;20.40;75.45;98624.81;5112367;27;41670;-79
2021/09/16 04:04:47;;;;;;;2.77;2.10;;;;;;;20.43;75.76;98637.94;5128695;27;41567;-78
2021/09/16 04:07:14;;;;;;;2.13;1.73;;;;;;;20.42;75.33;98638.94;5129439;27;39278;-80
2021/09/16 04:09:41;;;;;;;2.27;2.07;;;;;;;20.40;75.47;98636.41;5130186;27;43202;-78
2021/09/16 04:12:09;;;;;;;2.67;2.30;;;;;;;20.41;75.39;98631.88;5112664;27;43249;-79
2021/09/16 04:14:37;;;;;;;2.20;1.70;;;;;;;20.42;75.22;98634.41;5128887;27;42447;-80
2021/09/16 04:17:06;;;;;;;2.73;2.17;;;;;;;20.31;75.67;98621.22;5131230;27;41123;-80
2021/09/16 04:19:33;;;;;;;4.10;2.57;;;;;;;20.35;75.74;98638.75;5129354;27;42554;-80
2021/09/16 04:22:01;;;;;;;2.50;1.63;;;;;;;20.31;75.83;98642.75;5111583;27;42749;-79
2021/09/16 04:24:29;;;;;;;2.50;2.07;;;;;;;20.20;76.04;98626.91;5128966;27;43341;-79
2021/09/16 04:26:56;;;;;;;2.70;2.50;;;;;;;20.26;75.87;98633.50;5130953;27;39866;-80
2021/09/16 04:29:24;;;;;;;3.53;2.30;;;;;;;20.24;76.04;98636.34;5128537;27;42276;-79
2021/09/16 04:31:51;;;;;;;2.20;1.90;;;;;;;20.24;75.85;98628.28;5128764;27;42594;-79
2021/09/16 04:34:20;;;;;;;4.10;2.50;;;;;;;20.27;76.04;98640.56;5128465;27;41675;-79
2021/09/16 04:36:48;;;;;;;2.67;2.13;;;;;;;20.24;76.15;98643.56;5112569;27;40020;-80
2021/09/16 04:39:16;;;;;;;2.57;2.17;;;;;;;20.25;76.27;98647.94;5129553;27;41876;-80
2021/09/16 04:41:43;;;;;;;3.47;2.33;;;;;;;20.22;75.78;98643.72;5128683;27;42748;-79
2021/09/16 04:44:11;;;;;;;3.30;2.37;;;;;;;20.25;75.82;98650.63;5127138;27;41237;-80
2021/09/16 04:46:38;;;;;;;4.03;2.70;;;;;;;20.23;75.70;98650.78;5128924;27;39867;-80
2021/09/16 04:49:06;;;;;;;4.30;3.20;;;;;;;20.21;75.71;98639.34;5109641;27;40733;-78
2021/09/16 04:51:35;;;;;;;4.13;2.93;;;;;;;20.19;75.93;98649.41;5110998;27;43141;-80
2021/09/16 04:54:02;;;;;;;6.10;3.73;;;;;;;20.19;75.61;98660.16;5111572;27;41508;-80
2021/09/16 04:56:30;;;;;;;3.57;2.80;;;;;;;20.17;75.47;98651.41;5111441;27;40181;-79
2021/09/16 04:58:57;;;;;;;4.60;2.83;;;;;;;20.20;75.75;98656.47;5128885;27;41032;-81
2021/09/16 05:01:25;;;;;;;5.00;3.47;;;;;;;20.20;75.27;98661.88;5129521;27;42824;-81
2021/09/16 05:03:52;;;;;;;4.83;3.23;;;;;;;20.15;75.53;98658.84;5110384;27;41607;-78
2021/09/16 05:06:20;;;;;;;5.33;3.90;;;;;;;20.11;74.78;98664.69;5129211;27;41285;-82
2021/09/16 05:08:49;;;;;;;3.93;3.33;;;;;;;20.06;74.76;98663.31;5129784;27;42905;-81
2021/09/16 05:11:16;;;;;;;4.00;3.00;;;;;;;20.03;74.29;98660.09;5130738;27;43061;-78
2021/09/16 05:13:44;;;;;;;3.50;2.93;;;;;;;20.00;74.37;98673.88;5128567;27;42548;-81
2021/09/16 05:16:11;;;;;;;3.67;2.90;;;;;;;19.98;73.90;98674.03;5113066;27;38941;-81
2021/09/16 05:18:39;;;;;;;3.33;2.63;;;;;;;19.96;73.97;98677.88;5132046;27;41999;-80
2021/09/16 05:21:07;;;;;;;3.70;2.30;;;;;;;19.89;74.08;98683.06;5133731;27;43948;-80
2021/09/16 05:23:34;;;;;;;2.60;2.40;;;;;;;19.83;74.24;98691.72;5132527;27;43218;-80
2021/09/16 05:26:03;;;;;;;2.77;2.33;;;;;;;19.77;73.90;98689.69;5132764;27;40470;-80
2021/09/16 05:28:31;;;;;;;4.23;3.23;;;;;;;19.73;74.09;98694.53;5131327;27;42019;-79
2021/09/16 05:30:58;;;;;;;3.33;2.60;;;;;;;19.62;73.99;98681.38;5115216;27;41927;-79
2021/09/16 05:33:26;;;;;;;3.63;2.73;;;;;;;19.70;74.03;98697.53;5128685;27;42499;-81
2021/09/16 05:35:53;;;;;;;3.83;3.30;;;;;;;19.69;74.01;98701.22;5112274;27;40292;-83
2021/09/16 05:38:21;;;;;;;3.33;2.70;;;;;;;19.57;74.07;98685.50;5130586;27;41795;-82
2021/09/16 05:40:48;;;;;;;3.33;2.70;;;;;;;19.65;74.27;98690.97;5121099;27;42762;-82
2021/09/16 05:43:17;;;;;;;3.33;2.67;;;;;;;19.69;74.02;98701.22;5111331;27;41527;-82
2021/09/16 05:45:45;;;;;;;3.50;2.97;;;;;;;19.65;74.02;98699.88;5130942;27;40008;-82
2021/09/16 05:48:12;;;;;;;4.97;3.70;;;;;;;19.65;74.20;98699.88;5110769;27;41130;-81
2021/09/16 05:50:40;;;;;;;3.30;2.40;;;;;;;19.67;74.59;98707.72;5135482;27;41599;-82
2021/09/16 05:53:09;;;;;;;3.83;2.73;;;;;;;19.63;74.51;98712.59;5128573;27;42580;-82
2021/09/16 05:55:39;;;;;;;4.47;2.97;;;;;;;19.60;74.54;98712.06;5131312;27;41459;-82
2021/09/16 05:58:07;;;;;;;4.63;3.37;;;;;;;19.59;74.87;98711.22;5120526;27;41028;-82
2021/09/16 06:00:36;;;;;;;4.67;3.50;;;;;;;19.56;74.70;98716.91;5139086;27;43574;-81
2021/09/16 06:03:03;;;;;;;3.10;2.80;;;;;;;19.50;74.92;98714.00;5138476;27;42174;-82
2021/09/16 06:05:31;;;;;;;3.67;2.83;;;;;;;19.52;75.03;98720.91;5138045;27;40281;-82
2021/09/16 06:07:58;;;;;;;4.73;3.53;;;;;;;19.53;74.82;98719.06;5131650;27;40628;-81
2021/09/16 06:10:26;;;;;;;3.60;2.70;;;;;;;19.52;74.79;98734.34;5129460;27;42755;-81
2021/09/16 06:12:54;;;;;;;2.97;2.17;;;;;;;19.52;74.48;98737.03;5129462;27;41172;-82
2021/09/16 06:15:21;;;;;;;3.83;2.63;;;;;;;19.56;74.37;98735.69;5137741;27;40863;-81
2021/09/16 06:17:51;;;;;;;3.57;2.97;;;;;;;19.40;74.38;98715.91;5140412;27;42510;-81
2021/09/16 06:20:18;;;;;;;2.60;2.33;;;;;;;19.58;74.23;98736.38;5124581;27;43827;-81
2021/09/16 06:22:47;;;;;;;4.03;2.67;;;;;;;19.58;74.11;98736.38;5107935;28;42110;-82
2021/09/16 06:25:15;;;;;;;3.00;2.60;;;;;;;19.49;74.35;98731.13;5133916;27;39875;-82
2021/09/16 06:27:44;;;;;;;4.50;3.10;;;;;;;19.58;74.36;98735.56;5129148;27;42746;-81
2021/09/16 06:30:13;;;;;;;4.27;3.07;;;;;;;19.50;74.38;98722.91;5128799;27;43238;-81
2021/09/16 06:32:45;;;;;;;3.70;2.80;;;;;;;19.62;74.43;98743.16;5131877;27;43639;-82
2021/09/16 06:35:15;;;;;;;5.40;3.70;;;;;;;19.65;74.38;98740.16;5127755;27;39176;-82
2021/09/16 06:37:43;;;;;;;4.20;3.57;;;;;;;19.69;74.00;98738.84;5129021;27;40633;-82
2021/09/16 06:40:13;;;;;;;3.53;2.70;;;;;;;19.73;74.00;98745.59;5127276;27;42828;-81
2021/09/16 06:42:40;;;;;;;4.23;3.33;;;;;;;19.70;73.77;98732.47;5131620;27;42096;-81
2021/09/16 06:45:10;;;;;;;3.70;2.90;;;;;;;19.77;73.87;98734.53;5129269;27;41066;-82
2021/09/16 06:47:38;;;;;;;4.23;2.97;;;;;;;19.84;73.88;98735.59;5111918;27;41189;-81
2021/09/16 06:50:07;;;;;;;4.73;3.67;;;;;;;19.97;73.66;98749.44;5128393;27;43330;-82
2021/09/16 06:52:36;;;;;;;5.03;3.67;;;;;;;19.98;73.88;98745.75;5111911;27;42502;-81
2021/09/16 06:55:05;;;;;;;3.13;2.57;;;;;;;20.01;73.48;98745.44;5111422;27;38856;-82
2021/09/16 06:57:33;;;;;;;4.70;3.70;;;;;;;20.02;73.35;98755.22;5134415;27;41384;-82
2021/09/16 07:00:01;;;;;;;2.73;2.53;;;;;;;20.04;72.94;98755.88;5131561;27;42760;-83
2021/09/16 07:02:29;;;;;;;3.70;2.70;;;;;;;19.96;72.64;98745.06;5148653;27;42676;-82
2021/09/16 07:04:57;;;;;;;3.40;3.10;;;;;;;20.00;72.73;98741.91;5146420;27;40064;-82
2021/09/16 07:07:25;;;;;;;2.87;2.57;;;;;;;20.09;72.85;98767.00;5134325;27;41181;-82
2021/09/16 07:09:54;;;;;;;3.37;2.60;;;;;;;20.06;73.00;98778.06;5128265;27;42130;-82
2021/09/16 07:12:22;;;;;;;3.30;2.70;;;;;;;20.04;72.77;98769.31;5116181;27;41664;-82
2021/09/16 07:14:50;;;;;;;4.67;3.30;;;;;;;19.88;72.67;98751.25;5136629;27;40215;-82
2021/09/16 07:17:18;;;;;;;4.10;3.27;;;;;;;19.93;72.53;98774.94;5136189;27;42167;-82
2021/09/16 07:19:45;;;;;;;3.63;2.90;;;;;;;19.92;73.01;98778.63;5110571;27;43016;-81
2021/09/16 07:22:13;;;;;;;2.77;2.50;;;;;;;19.80;73.05;98750.31;5113412;27;41300;-81
2021/09/16 07:24:40;;;;;;;2.90;2.60;;;;;;;19.73;72.94;98744.75;5114370;27;39388;-83
2021/09/16 07:27:10;;;;;;;2.77;2.53;;;;;;;19.98;72.28;98769.94;5110662;27;41939;-82
2021/09/16 07:29:38;;;;;;;4.17;3.43;;;;;;;20.02;72.55;98772.19;5128479;27;41800;-82
2021/09/16 07:32:06;;;;;;;3.60;2.93;;;;;;;20.13;71.99;98773.75;5111870;27;41821;-82
2021/09/16 07:34:37;;;;;;;5.50;2.80;;;;;;;20.22;71.70;98767.41;5118551;27;39898;-82
2021/09/16 07:37:06;;;;;;;3.27;2.90;;;;;;;20.34;71.20;98774.22;5119825;27;40730;-83
2021/09/16 07:39:34;;;;;;;3.80;3.20;;;;;;;20.61;70.61;98777.75;5126286;27;41998;-82
2021/09/16 07:42:01;;;;;;;3.33;2.87;;;;;;;20.83;70.29;98782.53;5127236;27;42755;-83
2021/09/16 07:44:30;;;;;;;4.00;2.73;;;;;;;21.02;69.96;98784.97;5133669;27;40757;-83
2021/09/16 07:46:58;;;;;;;2.97;2.67;;;;;;;21.07;68.93;98774.56;5126758;27;41634;-81
2021/09/16 07:49:26;;;;;;;3.17;2.87;;;;;;;21.26;69.01;98783.41;5109388;27;41901;-82
2021/09/16 07:51:54;;;;;;;3.17;2.63;;;;;;;21.42;68.85;98794.19;5114707;27;41212;-83
2021/09/16 07:54:23;;;;;;;3.40;3.07;;;;;;;21.50;68.56;98797.75;5134720;27;39041;-82
2021/09/16 07:56:51;;;;;;;6.83;3.77;;;;;;;21.52;67.89;98784.09;5115042;27;40524;-82
2021/09/16 07:59:18;;;;;;;4.73;3.13;;;;;;;21.55;67.40;98799.94;5126413;27;44291;-83
2021/09/16 08:01:48;;;;;;;3.10;2.67;;;;;;;21.57;66.97;98802.47;5129375;27;42308;-84
2021/09/16 08:04:16;;;;;;;4.27;3.50;;;;;;;21.56;67.29;98796.22;5131846;27;39071;-83
2021/09/16 08:06:43;;;;;;;3.93;3.27;;;;;;;21.63;66.20;98813.44;5109815;27;40654;-82
2021/09/16 08:09:11;;;;;;;4.37;3.13;;;;;;;21.64;66.18;98817.78;5109288;27;43040;-84
2021/09/16 08:11:39;;;;;;;4.37;3.47;;;;;;;21.50;65.61;98808.53;5127346;27;42157;-83
2021/09/16 08:14:07;;;;;;;3.57;3.03;;;;;;;21.58;65.70;98828.41;5127331;27;40073;-82
2021/09/16 08:16:36;;;;;;;3.90;3.30;;;;;;;21.57;66.07;98819.47;5126137;27;41976;-83
2021/09/16 08:19:08;;;;;;;4.13;3.47;;;;;;;21.51;66.39;98814.75;5127342;27;42160;-83
2021/09/16 08:21:36;;;;;;;4.53;3.60;;;;;;;21.43;66.69;98817.41;5128142;27;41656;-83
2021/09/16 08:24:04;;;;;;;4.53;3.30;;;;;;;21.37;66.70;98812.72;5136237;27;40828;-84
2021/09/16 08:26:32;;;;;;;3.37;2.90;;;;;;;21.37;67.17;98829.72;5136792;27;41765;-82
2021/09/16 08:29:00;;;;;;;2.53;2.10;;;;;;;21.34;67.38;98842.66;5147621;27;42447;-83
2021/09/16 08:31:28;;;;;;;3.53;3.23;;;;;;;21.25;67.25;98840.97;5125700;27;42595;-83
2021/09/16 08:33:56;;;;;;;4.73;3.20;;;;;;;21.13;67.39;98825.06;5146840;27;38948;-83
2021/09/16 08:36:25;;;;;;;3.20;2.90;;;;;;;21.20;67.27;98840.59;5144961;27;42551;-84
2021/09/16 08:38:53;;;;;;;4.20;2.90;;;;;;;21.19;66.88;98847.00;5108964;27;41881;-83
2021/09/16 08:41:21;;;;;;;3.73;3.23;;;;;;;21.20;66.48;98848.69;5130043;27;42497;-84
2021/09/16 08:43:50;;;;;;;3.40;3.10;;;;;;;21.24;66.38;98850.91;5117367;27;38992;-84
2021/09/16 08:46:18;;;;;;;3.47;2.83;;;;;;;21.24;66.00;98850.06;5134574;27;41836;-82
2021/09/16 08:48:46;;;;;;;4.00;3.17;;;;;;;21.15;65.24;98852.66;5126673;27;42383;-83
2021/09/16 08:51:14;;;;;;;3.37;2.90;;;;;;;21.14;64.98;98859.06;5131259;27;41568;-83
2021/09/16 08:53:44;;;;;;;4.23;2.90;;;;;;;21.14;64.43;98855.53;5137052;27;40125;-84
2021/09/16 08:56:14;;;;;;;2.10;1.90;;;;;;;21.13;64.27;98854.69;5138794;27;40829;-82
2021/09/16 08:58:45;;;;;;;2.30;2.17;;;;;;;21.06;63.92;98844.72;5129695;27;42739;-79
2021/09/16 09:01:15;;;;;;;3.23;2.30;;;;;;;21.14;64.42;98861.75;5130880;27;42590;-89
2021/09/16 09:03:43;;;;;;;3.23;2.33;;;;;;;21.11;64.21;98856.72;5136316;27;40160;-83
2021/09/16 09:06:34;;;;;;;4.60;2.80;;;;;;;21.16;63.97;98858.91;5121018;27;40961;-83
2021/09/16 09:09:15;;;;;;;2.83;2.40;;;;;;;21.26;64.03;98853.44;5112488;27;42597;-85
2021/09/16 09:11:58;;;;;;;2.97;2.53;;;;;;;21.38;63.50;98874.50;5118505;27;41507;-83
2021/09/16 09:14:28;;;;;;;3.93;2.47;;;;;;;21.45;63.47;98863.91;5108606;28;39642;-82
2021/09/16 09:16:56;;;;;;;2.53;2.10;;;;;;;21.69;63.31;98866.66;5109844;28;41753;-83
2021/09/16 09:19:43;;;;;;;3.00;2.17;;;;;;;21.81;62.15;98881.50;5109907;28;43017;-85
2021/09/16 09:22:10;;;;;;;2.40;2.20;;;;;;;21.74;61.81;98877.78;5111466;27;41259;-85
2021/09/16 09:24:42;;;;;;;1.67;1.57;;;;;;;21.74;62.16;98888.59;5134639;27;39276;-84
2021/09/16 09:27:25;;;;;;;2.23;2.00;;;;;;;21.72;62.13;98882.50;5145752;27;41849;-83
2021/09/16 09:30:09;;;;;;;2.97;2.03;;;;;;;21.69;61.95;98866.66;5150469;27;43762;-85
2021/09/16 09:32:51;;;;;;;2.50;2.07;;;;;;;21.81;62.18;98876.09;5114249;27;42259;-85
2021/09/16 09:35:32;;;;;;;2.17;1.97;;;;;;;21.91;61.18;98885.88;5112837;27;39430;-85
2021/09/16 09:38:03;;;;;;;1.83;1.73;;;;;;;21.95;61.22;98887.25;5108443;28;41051;-84
2021/09/16 09:40:37;;;;;;;3.03;2.23;;;;;;;22.02;61.13;98885.59;5091164;28;41949;-86
2021/09/16 09:43:21;;;;;;;2.33;2.10;;;;;;;22.20;60.75;98880.88;5109211;28;42477;-84
2021/09/16 09:46:09;;;;;;;2.00;1.80;;;;;;;22.66;60.35;98875.75;5123938;27;39657;-86
2021/09/16 09:48:40;;;;;;;2.90;1.90;;;;;;;23.19;58.13;98886.78;5129906;27;41933;-85
2021/09/16 09:51:10;;;;;;;2.93;2.07;;;;;;;23.76;56.91;98902.72;5118044;27;41821;-83
2021/09/16 09:53:40;;;;;;;2.23;2.00;;;;;;;24.23;56.10;98896.34;5135042;27;42927;-86
2021/09/16 09:56:19;;;;;;;1.83;1.70;;;;;;;24.47;54.56;98898.84;5109248;28;39004;-86
2021/09/16 09:58:48;;;;;;;1.67;1.57;;;;;;;24.74;53.38;98913.63;5109885;28;41044;-84
2021/09/16 10:01:28;;;;;;;1.60;1.50;;;;;;;24.74;52.75;98918.19;5116257;27;43285;-86
2021/09/16 10:03:57;;;;;;;1.67;1.57;;;;;;;24.49;53.15;98893.22;5119723;27;41300;-84
2021/09/16 10:06:34;;;;;;;1.40;1.30;;;;;;;24.48;53.98;98897.78;5133631;27;41119;-84
2021/09/16 10:09:10;;;;;;;1.80;1.60;;;;;;;24.47;53.29;98912.38;5129603;27;42423;-86
2021/09/16 10:11:42;;;;;;;1.93;1.57;;;;;;;24.40;53.86;98906.00;5120495;27;43297;-85
2021/09/16 10:14:11;;;;;;;1.37;1.27;;;;;;;24.37;53.64;98917.19;5132619;27;41361;-84
2021/09/16 10:16:39;;;;;;;1.90;1.67;;;;;;;24.33;53.63;98899.66;5128942;27;39730;-84
2021/09/16 10:19:08;;;;;;;2.70;1.20;;;;;;;24.61;53.21;98919.66;5129706;27;41837;-86
2021/09/16 10:21:36;;;;;;;2.07;1.87;;;;;;;24.88;52.50;98909.25;5136590;27;42687;-85
2021/09/16 10:24:06;;;;;;;1.43;1.33;;;;;;;25.08;51.37;98917.72;5119084;27;43117;-85
2021/09/16 10:26:37;;;;;;;1.47;1.30;;;;;;;25.07;50.70;98927.72;5133687;27;41291;-84
2021/09/16 10:29:27;;;;;;;1.67;1.57;;;;;;;25.10;50.77;98927.31;5114344;27;40831;-85
2021/09/16 10:32:37;;;;;;;2.40;2.13;;;;;;;25.27;49.55;98926.13;5128407;27;42889;-85
2021/09/16 10:35:21;;;;;;;2.17;1.97;;;;;;;25.63;49.36;98937.03;5120077;27;41384;-84
2021/09/16 10:37:49;;;;;;;1.50;1.33;;;;;;;25.84;47.83;98932.72;5167429;27;38964;-85
2021/09/16 10:40:29;;;;;;;1.83;1.37;;;;;;;25.83;47.99;98926.44;5163610;27;41744;-86
2021/09/16 10:43:01;;;;;;;1.40;1.30;;;;;;;25.89;47.42;98909.38;5138125;27;43012;-85
2021/09/16 10:45:34;;;;;;;2.97;1.87;;;;;;;25.97;47.09;98922.81;5137003;27;42606;-86
2021/09/16 10:48:30;;;;;;;1.70;1.50;;;;;;;25.90;47.48;98932.78;5166822;27;39986;-81
2021/09/16 10:51:02;;;;;;;2.37;1.30;;;;;;;25.61;47.70;98927.41;5169592;27;42306;-81
2021/09/16 10:53:36;;;;;;;1.30;1.20;;;;;;;25.44;48.36;98915.06;5154853;27;43810;-82
2021/09/16 10:56:05;;;;;;;1.60;1.50;;;;;;;25.67;49.10;98927.50;5143604;27;43215;-81
2021/09/16 10:58:55;;;;;;;1.60;1.50;;;;;;;26.00;47.19;98933.28;5105036;28;20642;-82
2021/09/16 11:01:58;;;;;;;1.40;1.30;;;;;;;26.16;47.66;98923.22;5166600;27;1332083;-80
2021/09/16 11:05:09;;;;;;;1.10;1.10;;;;;;;26.10;47.05;98927.53;5172329;27;1301151;-81
2021/09/16 11:07:56;;;;;;;1.93;1.60;;;;;;;26.50;46.31;98922.53;5167568;27;39750;-83
2021/09/16 11:10:49;;;;;;;1.57;1.47;;;;;;;26.55;46.07;98923.63;5185697;27;41848;-82
2021/09/16 11:13:38;;;;;;;1.47;1.37;;;;;;;26.10;46.46;98920.25;5158046;27;43126;-80
2021/09/16 11:16:07;;;;;;;2.27;1.20;;;;;;;25.70;47.11;98915.44;5158004;27;41394;-82
2021/09/16 11:18:35;;;;;;;1.80;1.70;;;;;;;25.74;46.94;98922.13;5188554;27;40203;-82
2021/09/16 11:21:20;;;;;;;1.60;1.50;;;;;;;25.63;47.21;98926.19;5154542;27;20565;-82
2021/09/16 11:24:07;;;;;;;1.80;1.70;;;;;;;25.67;47.56;98921.22;5112592;27;20553;-82
2021/09/16 11:26:49;;;;;;;1.30;1.20;;;;;;;25.75;46.94;98929.25;5103118;28;20568;-81
2021/09/16 11:29:45;;;;;;;1.90;1.43;;;;;;;25.56;46.30;98929.84;5130291;27;21073;-80
2021/09/16 11:32:33;;;;;;;1.43;1.33;;;;;;;25.31;47.32;98921.16;5164693;27;20579;-81
2021/09/16 11:35:18;;;;;;;1.67;1.57;;;;;;;25.08;48.51;98918.56;5204410;27;20552;-83
2021/09/16 11:38:03;;;;;;;2.00;1.80;;;;;;;24.82;48.70;98910.00;5102039;28;20563;-83
2021/09/16 11:40:47;;;;;;;1.70;1.43;;;;;;;24.47;49.12;98911.53;5165542;27;21307;-80
2021/09/16 11:43:30;;;;;;;3.03;1.60;;;;;;;24.33;49.73;98910.47;5143768;27;20563;-83
2021/09/16 11:46:18;;;;;;;3.03;1.20;;;;;;;24.27;50.41;98908.47;5102171;28;20568;-82
2021/09/16 11:49:04;;;;;;;1.40;1.33;;;;;;;24.28;50.05;98905.59;5162748;27;20566;-83